Time;durP1;ratioP1;P1;durP2;ratioP2;P2;SDS_P1;SDS_P2;PMS_P1;PMS_P2;Temp;Humidity;BMP_temperature;BMP_pressure;BME280_temperature;BME280_humidity;BME280_pressure;Samples;Min_cycle;Max_cycle;Signal;HPM_P1;HPM_P2
2022/06/01 00:02:08;;;;;;;2.60;2.40;;;;;;;;;;5008224;28;20406;-74
2022/06/01 00:04:33;;;;;;;3.20;2.43;;;;;;;;;;5013444;28;20182;-74
2022/06/01 00:06:59;;;;;;;3.23;2.30;;;;;;;;;;5017568;28;20188;-74
2022/06/01 00:09:24;;;;;;;2.60;2.30;;;;;;;;;;5008654;28;20213;-74
2022/06/01 00:11:49;;;;;;;2.60;2.40;;;;;;;;;;5022623;28;20181;-74
2022/06/01 00:14:14;;;;;;;3.43;2.27;;;;;;;;;;5002302;28;20191;-74
2022/06/01 00:16:39;;;;;;;2.43;2.23;;;;;;;;;;5008307;28;20195;-74
2022/06/01 00:19:07;;;;;;;3.20;2.90;;;;;;;;;;5011080;28;20211;-74
2022/06/01 00:21:33;;;;;;;3.67;2.33;;;;;;;;;;5014464;28;20199;-75
2022/06/01 00:23:58;;;;;;;2.60;2.40;;;;;;;;;;5023088;28;20174;-74
2022/06/01 00:26:23;;;;;;;4.80;2.97;;;;;;;;;;5030037;28;20175;-74
2022/06/01 00:28:48;;;;;;;3.50;2.30;;;;;;;;;;5026556;28;20180;-74
2022/06/01 00:31:13;;;;;;;4.70;2.27;;;;;;;;;;5019809;28;20293;-74
2022/06/01 00:33:39;;;;;;;3.33;2.37;;;;;;;;;;5019427;28;20183;-74
2022/06/01 00:36:07;;;;;;;2.90;2.47;;;;;;;;;;5018665;28;20371;-74
2022/06/01 00:38:32;;;;;;;2.80;2.60;;;;;;;;;;5018801;28;20262;-74
2022/06/01 00:41:05;;;;;;;2.80;2.57;;;;;;;;;;5013295;28;20295;-74
2022/06/01 00:43:39;;;;;;;2.53;2.27;;;;;;;;;;4999320;28;20179;-74
2022/06/01 00:46:04;;;;;;;2.97;2.70;;;;;;;;;;5015768;28;20182;-74
2022/06/01 00:48:30;;;;;;;3.77;2.43;;;;;;;;;;5010557;28;20270;-74
2022/06/01 00:50:56;;;;;;;3.33;2.43;;;;;;;;;;5027768;28;20176;-74
2022/06/01 00:53:24;;;;;;;2.57;2.23;;;;;;;;;;5022105;28;20188;-74
2022/06/01 00:56:04;;;;;;;4.10;2.33;;;;;;;;;;5006476;28;20179;-74
2022/06/01 00:58:35;;;;;;;2.33;2.13;;;;;;;;;;5019325;28;20178;-74
2022/06/01 01:01:01;;;;;;;2.97;2.40;;;;;;;;;;5001263;28;20230;-74
2022/06/01 01:03:29;;;;;;;2.30;2.10;;;;;;;;;;4996314;28;20262;-74
2022/06/01 01:06:05;;;;;;;4.90;2.07;;;;;;;;;;5006206;28;20246;-74
2022/06/01 01:08:31;;;;;;;4.00;2.43;;;;;;;;;;4990205;28;20188;-74
2022/06/01 01:10:56;;;;;;;2.20;2.00;;;;;;;;;;4989661;28;20291;-74
2022/06/01 01:13:23;;;;;;;2.33;2.13;;;;;;;;;;5000775;28;20305;-74
2022/06/01 01:15:54;;;;;;;2.57;2.30;;;;;;;;;;4983887;28;20190;-74
2022/06/01 01:18:25;;;;;;;2.30;2.10;;;;;;;;;;4979709;28;20533;-74
2022/06/01 01:21:00;;;;;;;2.33;1.80;;;;;;;;;;5004685;28;20270;-74
2022/06/01 01:23:37;;;;;;;2.40;2.20;;;;;;;;;;5001938;28;20218;-74
2022/06/01 01:26:03;;;;;;;2.60;2.40;;;;;;;;;;5001689;28;20279;-74
2022/06/01 01:28:28;;;;;;;2.30;2.10;;;;;;;;;;4996123;28;20179;-74
2022/06/01 01:30:59;;;;;;;2.50;2.30;;;;;;;;;;4977105;28;20219;-74
2022/06/01 01:33:26;;;;;;;2.13;2.00;;;;;;;;;;4996934;28;20181;-74
2022/06/01 01:35:55;;;;;;;3.93;2.07;;;;;;;;;;4985598;28;20180;-74
2022/06/01 01:38:59;;;;;;;2.27;2.07;;;;;;;;;;4985937;28;20194;-74
2022/06/01 01:41:24;;;;;;;3.27;2.30;;;;;;;;;;4911698;29;20217;-74
2022/06/01 01:43:50;;;;;;;3.10;2.90;;;;;;;;;;4904034;29;20216;-74
2022/06/01 01:46:15;;;;;;;7.50;2.47;;;;;;;;;;4913439;29;20279;-74
2022/06/01 01:48:41;;;;;;;2.40;2.20;;;;;;;;;;4910136;29;20200;-74
2022/06/01 01:51:06;;;;;;;3.23;2.20;;;;;;;;;;4926817;29;20200;-74
2022/06/01 01:53:32;;;;;;;2.97;2.27;;;;;;;;;;4927935;29;20201;-74
2022/06/01 01:56:03;;;;;;;2.30;2.20;;;;;;;;;;4915194;29;20185;-74
2022/06/01 01:58:41;;;;;;;2.17;1.97;;;;;;;;;;4918845;29;20195;-74
2022/06/01 02:01:11;;;;;;;2.20;2.07;;;;;;;;;;4905314;29;20221;-74
2022/06/01 02:03:36;;;;;;;2.43;2.23;;;;;;;;;;4922226;29;20223;-74
2022/06/01 02:06:04;;;;;;;2.07;1.87;;;;;;;;;;4960721;28;20196;-74
2022/06/01 02:08:32;;;;;;;4.40;2.17;;;;;;;;;;4955592;28;20187;-74
2022/06/01 02:13:55;;;;;;;3.73;2.00;;;;;;;;;;5020669;28;20336;-74
2022/06/01 02:16:22;;;;;;;2.50;2.30;;;;;;;;;;5009836;28;20183;-74
2022/06/01 02:18:49;;;;;;;2.20;2.00;;;;;;;;;;5019550;28;20917;-74
2022/06/01 02:21:16;;;;;;;3.53;2.03;;;;;;;;;;5007218;28;20233;-74
2022/06/01 02:23:41;;;;;;;5.83;2.20;;;;;;;;;;5005246;28;20187;-74
2022/06/01 02:26:07;;;;;;;1.80;1.70;;;;;;;;;;5002535;28;20194;-74
2022/06/01 02:28:32;;;;;;;3.00;2.17;;;;;;;;;;5016331;28;20233;-74
2022/06/01 02:30:58;;;;;;;2.00;1.90;;;;;;;;;;5021008;28;20243;-74
2022/06/01 02:33:26;;;;;;;3.70;2.00;;;;;;;;;;5010383;28;20190;-74
2022/06/01 02:35:53;;;;;;;2.30;2.00;;;;;;;;;;5004165;28;20193;-74
2022/06/01 02:38:25;;;;;;;2.27;2.10;;;;;;;;;;5020888;28;20198;-74
2022/06/01 02:40:52;;;;;;;2.63;2.00;;;;;;;;;;5004639;28;20208;-74
2022/06/01 02:43:18;;;;;;;3.03;2.23;;;;;;;;;;5017850;28;20178;-74
2022/06/01 02:45:43;;;;;;;2.53;2.10;;;;;;;;;;5021639;28;20190;-74
2022/06/01 02:48:09;;;;;;;2.37;1.97;;;;;;;;;;5021906;28;20204;-74
2022/06/01 02:50:35;;;;;;;2.57;2.00;;;;;;;;;;5025611;28;20190;-74
2022/06/01 02:53:00;;;;;;;2.03;1.80;;;;;;;;;;5002455;28;20185;-74
2022/06/01 02:55:27;;;;;;;3.20;2.20;;;;;;;;;;5013118;28;20189;-74
2022/06/01 02:57:53;;;;;;;2.20;2.00;;;;;;;;;;5010427;28;20285;-74
2022/06/01 03:00:19;;;;;;;2.13;2.00;;;;;;;;;;5033687;28;20265;-74
2022/06/01 03:02:46;;;;;;;3.47;2.13;;;;;;;;;;5007114;28;20223;-74
2022/06/01 03:05:12;;;;;;;1.90;1.80;;;;;;;;;;4995540;28;20181;-74
2022/06/01 03:07:37;;;;;;;2.43;1.93;;;;;;;;;;4998489;28;20222;-74
2022/06/01 03:10:02;;;;;;;2.20;2.00;;;;;;;;;;5007549;28;20210;-74
2022/06/01 03:12:28;;;;;;;5.77;3.20;;;;;;;;;;4990298;28;20239;-74
2022/06/01 03:14:53;;;;;;;3.20;1.90;;;;;;;;;;4990279;28;20185;-74
2022/06/01 03:17:18;;;;;;;3.33;2.03;;;;;;;;;;4992060;28;20185;-74
2022/06/01 03:19:43;;;;;;;3.47;2.20;;;;;;;;;;4997685;28;20199;-73
2022/06/01 03:22:08;;;;;;;3.23;2.23;;;;;;;;;;5008868;28;20178;-74
2022/06/01 03:24:34;;;;;;;1.90;1.80;;;;;;;;;;4991932;28;20178;-74
2022/06/01 03:26:59;;;;;;;2.67;2.17;;;;;;;;;;4989922;28;20178;-74
2022/06/01 03:29:24;;;;;;;2.20;2.00;;;;;;;;;;5003524;28;20240;-74
2022/06/01 03:31:52;;;;;;;2.33;2.03;;;;;;;;;;4986660;28;20183;-74
2022/06/01 03:34:18;;;;;;;3.80;1.87;;;;;;;;;;5002327;28;20185;-74
2022/06/01 03:36:43;;;;;;;3.40;3.10;;;;;;;;;;4998398;28;20236;-74
2022/06/01 03:39:08;;;;;;;2.30;2.07;;;;;;;;;;4993985;28;20186;-74
2022/06/01 03:41:33;;;;;;;2.23;1.93;;;;;;;;;;4994543;28;20269;-74
2022/06/01 03:46:59;;;;;;;2.30;2.00;;;;;;;;;;4954081;28;20192;-74
2022/06/01 03:49:25;;;;;;;4.40;2.30;;;;;;;;;;4984410;28;20180;-73
2022/06/01 03:51:50;;;;;;;1.97;1.80;;;;;;;;;;5007129;28;20265;-74
2022/06/01 03:54:15;;;;;;;2.30;2.10;;;;;;;;;;4999479;28;20185;-74
2022/06/01 03:56:40;;;;;;;2.27;2.07;;;;;;;;;;4995241;28;20269;-74
2022/06/01 03:59:06;;;;;;;2.43;1.93;;;;;;;;;;5000913;28;20187;-74
2022/06/01 04:01:31;;;;;;;2.43;1.57;;;;;;;;;;4995872;28;20233;-74
2022/06/01 04:03:56;;;;;;;2.87;2.03;;;;;;;;;;4992280;28;20233;-74
2022/06/01 04:06:21;;;;;;;3.20;1.93;;;;;;;;;;4989515;28;20185;-74
2022/06/01 04:08:46;;;;;;;4.87;2.10;;;;;;;;;;5002805;28;20245;-74
2022/06/01 04:11:12;;;;;;;3.07;1.93;;;;;;;;;;4995673;28;20237;-74
2022/06/01 04:13:37;;;;;;;1.80;1.70;;;;;;;;;;4992473;28;20197;-74
2022/06/01 04:16:02;;;;;;;2.10;2.00;;;;;;;;;;5001593;28;20194;-74
2022/06/01 04:18:27;;;;;;;1.87;1.70;;;;;;;;;;5001558;28;20212;-74
2022/06/01 04:20:53;;;;;;;2.60;2.00;;;;;;;;;;5011588;28;20344;-74
2022/06/01 04:23:18;;;;;;;2.10;1.90;;;;;;;;;;5006870;28;20178;-74
2022/06/01 04:25:44;;;;;;;3.00;2.47;;;;;;;;;;5011709;28;20185;-74
2022/06/01 04:28:09;;;;;;;2.40;1.80;;;;;;;;;;4991900;28;20189;-74
2022/06/01 04:30:34;;;;;;;3.67;2.23;;;;;;;;;;4989847;28;20214;-74
2022/06/01 04:33:01;;;;;;;2.10;1.90;;;;;;;;;;5007678;28;20192;-74
2022/06/01 04:35:26;;;;;;;3.73;2.30;;;;;;;;;;5006299;28;20205;-75
2022/06/01 04:37:51;;;;;;;2.27;2.00;;;;;;;;;;4999679;28;20193;-74
2022/06/01 04:40:17;;;;;;;4.20;2.87;;;;;;;;;;4989890;28;20318;-74
2022/06/01 04:42:43;;;;;;;3.43;2.10;;;;;;;;;;4992331;28;20192;-74
2022/06/01 04:45:10;;;;;;;2.87;2.10;;;;;;;;;;5008425;28;20179;-74
2022/06/01 04:47:35;;;;;;;2.23;2.03;;;;;;;;;;4987745;28;20221;-75
2022/06/01 04:50:00;;;;;;;2.10;1.90;;;;;;;;;;4990354;28;20233;-74
2022/06/01 04:52:26;;;;;;;2.50;2.10;;;;;;;;;;4988062;28;20183;-75
2022/06/01 04:54:51;;;;;;;2.20;2.00;;;;;;;;;;4998735;28;20274;-74
2022/06/01 04:57:16;;;;;;;2.50;2.20;;;;;;;;;;4981680;28;20218;-74
2022/06/01 04:59:41;;;;;;;2.03;1.87;;;;;;;;;;5003591;28;20253;-74
2022/06/01 05:02:07;;;;;;;4.47;2.20;;;;;;;;;;4989733;28;20504;-75
2022/06/01 05:04:32;;;;;;;2.30;2.10;;;;;;;;;;5019836;28;20284;-73
2022/06/01 05:06:58;;;;;;;2.40;2.20;;;;;;;;;;5013340;28;20290;-74
2022/06/01 05:09:23;;;;;;;3.93;2.30;;;;;;;;;;5009696;28;20186;-73
2022/06/01 05:11:48;;;;;;;1.97;1.77;;;;;;;;;;5028775;28;20201;-74
2022/06/01 05:14:14;;;;;;;2.30;2.10;;;;;;;;;;5030606;28;20223;-74
2022/06/01 05:16:39;;;;;;;3.70;3.40;;;;;;;;;;5026780;28;20226;-73
2022/06/01 05:19:04;;;;;;;2.30;2.10;;;;;;;;;;5015471;28;20236;-73
2022/06/01 05:21:30;;;;;;;3.83;2.00;;;;;;;;;;5033190;28;20171;-73
2022/06/01 05:23:55;;;;;;;2.50;1.80;;;;;;;;;;5031249;28;20240;-73
2022/06/01 05:26:20;;;;;;;3.03;2.07;;;;;;;;;;5005670;28;20175;-74
2022/06/01 05:28:46;;;;;;;3.97;2.70;;;;;;;;;;5013743;28;20270;-73
2022/06/01 05:31:12;;;;;;;2.30;2.10;;;;;;;;;;5012301;28;20277;-73
2022/06/01 05:33:38;;;;;;;2.43;2.20;;;;;;;;;;5030230;28;20184;-73
2022/06/01 05:36:03;;;;;;;4.00;2.20;;;;;;;;;;5030727;28;20232;-73
2022/06/01 05:38:29;;;;;;;2.20;2.00;;;;;;;;;;5031388;28;20174;-73
2022/06/01 05:40:57;;;;;;;2.20;2.00;;;;;;;;;;5026392;28;20272;-73
2022/06/01 05:43:22;;;;;;;2.17;1.97;;;;;;;;;;5004385;28;20184;-74
2022/06/01 05:45:48;;;;;;;5.67;2.27;;;;;;;;;;5011707;28;20252;-74
2022/06/01 05:48:15;;;;;;;2.80;2.60;;;;;;;;;;5009017;28;20218;-73
2022/06/01 05:50:40;;;;;;;2.43;2.23;;;;;;;;;;5023542;28;20186;-73
2022/06/01 05:53:06;;;;;;;2.20;2.00;;;;;;;;;;5007791;28;20179;-74
2022/06/01 05:55:31;;;;;;;2.07;1.90;;;;;;;;;;5015573;28;20215;-73
2022/06/01 05:57:57;;;;;;;4.10;2.10;;;;;;;;;;5011470;28;20182;-73
2022/06/01 06:00:22;;;;;;;2.23;2.03;;;;;;;;;;5022875;28;20235;-73
2022/06/01 06:02:48;;;;;;;1.90;1.80;;;;;;;;;;5024431;28;20218;-73
2022/06/01 06:07:57;;;;;;;2.03;1.93;;;;;;;;;;5028755;28;20192;-73
2022/06/01 06:10:23;;;;;;;2.30;2.10;;;;;;;;;;5027574;28;20254;-73
2022/06/01 06:12:49;;;;;;;2.20;2.00;;;;;;;;;;5009665;28;20180;-74
2022/06/01 06:15:14;;;;;;;3.33;2.10;;;;;;;;;;5007551;28;20183;-74
2022/06/01 06:17:39;;;;;;;6.77;3.63;;;;;;;;;;5014311;28;20181;-74
2022/06/01 06:20:05;;;;;;;2.20;2.10;;;;;;;;;;5030446;28;20210;-73
2022/06/01 06:22:30;;;;;;;2.10;1.97;;;;;;;;;;5020056;28;20228;-73
2022/06/01 06:24:55;;;;;;;2.07;1.97;;;;;;;;;;5014581;28;20191;-73
2022/06/01 06:27:20;;;;;;;4.00;1.90;;;;;;;;;;5017238;28;20182;-73
2022/06/01 06:29:45;;;;;;;2.30;2.10;;;;;;;;;;5015286;28;20270;-73
2022/06/01 06:32:11;;;;;;;2.30;2.10;;;;;;;;;;5030891;28;20211;-73
2022/06/01 06:34:36;;;;;;;2.47;2.17;;;;;;;;;;5004240;28;20179;-73
2022/06/01 06:37:01;;;;;;;1.87;1.77;;;;;;;;;;5013187;28;20208;-73
2022/06/01 06:39:26;;;;;;;2.23;1.70;;;;;;;;;;5030194;28;20190;-74
2022/06/01 06:41:51;;;;;;;3.53;2.20;;;;;;;;;;5029008;28;20172;-73
2022/06/01 06:44:17;;;;;;;2.03;1.87;;;;;;;;;;5013164;28;20262;-73
2022/06/01 06:46:42;;;;;;;2.30;2.10;;;;;;;;;;5028299;28;20188;-73
2022/06/01 06:49:07;;;;;;;2.10;2.00;;;;;;;;;;5031107;28;20173;-73
2022/06/01 06:51:32;;;;;;;2.33;1.90;;;;;;;;;;5026966;28;20188;-73
2022/06/01 06:53:58;;;;;;;2.80;2.60;;;;;;;;;;5011408;28;20169;-73
2022/06/01 06:56:23;;;;;;;2.47;1.90;;;;;;;;;;5024362;28;20214;-74
2022/06/01 06:58:48;;;;;;;2.70;2.17;;;;;;;;;;5028433;28;20183;-73
2022/06/01 07:01:14;;;;;;;2.23;2.03;;;;;;;;;;5007816;28;20217;-73
2022/06/01 07:03:39;;;;;;;2.57;1.70;;;;;;;;;;4997127;28;20223;-73
2022/06/01 07:06:17;;;;;;;2.33;2.13;;;;;;;;;;4992354;28;20175;-73
2022/06/01 07:08:43;;;;;;;2.00;1.90;;;;;;;;;;4987349;28;20210;-74
2022/06/01 07:11:09;;;;;;;2.90;2.20;;;;;;;;;;5003097;28;20183;-73
2022/06/01 07:13:35;;;;;;;1.80;1.70;;;;;;;;;;4986270;28;20185;-74
2022/06/01 07:16:06;;;;;;;1.97;1.83;;;;;;;;;;4991796;28;20194;-73
2022/06/01 07:18:31;;;;;;;2.20;2.00;;;;;;;;;;5003606;28;20207;-74
2022/06/01 07:20:58;;;;;;;2.07;1.87;;;;;;;;;;5005419;28;20239;-73
2022/06/01 07:23:23;;;;;;;3.07;2.00;;;;;;;;;;4983424;28;20251;-73
2022/06/01 07:25:48;;;;;;;3.27;1.67;;;;;;;;;;5009873;28;20254;-73
2022/06/01 07:28:13;;;;;;;1.80;1.60;;;;;;;;;;4996013;28;20269;-73
2022/06/01 07:30:39;;;;;;;1.80;1.70;;;;;;;;;;4990427;28;20179;-73
2022/06/01 07:33:04;;;;;;;1.97;1.80;;;;;;;;;;4992492;28;20186;-73
2022/06/01 07:35:29;;;;;;;1.90;1.80;;;;;;;;;;4977017;28;20211;-74
2022/06/01 07:43:22;;;;;;;3.53;1.80;;;;;;;;;;5010635;28;20211;-74
2022/06/01 07:45:48;;;;;;;1.77;1.63;;;;;;;;;;4990802;28;20207;-74
2022/06/01 07:48:14;;;;;;;1.93;1.63;;;;;;;;;;4991573;28;20207;-73
2022/06/01 07:50:40;;;;;;;2.63;2.43;;;;;;;;;;4994859;28;20223;-73
2022/06/01 07:53:06;;;;;;;1.80;1.70;;;;;;;;;;4992291;28;20207;-73
2022/06/01 07:55:31;;;;;;;1.90;1.60;;;;;;;;;;5017562;28;20179;-73
2022/06/01 07:57:57;;;;;;;1.93;1.70;;;;;;;;;;4990210;28;20184;-73
2022/06/01 08:00:22;;;;;;;2.27;2.07;;;;;;;;;;4993941;28;20243;-74
2022/06/01 08:02:48;;;;;;;3.10;2.37;;;;;;;;;;5001001;28;20221;-73
2022/06/01 08:05:14;;;;;;;1.77;1.67;;;;;;;;;;5014384;28;20183;-74
2022/06/01 08:07:40;;;;;;;1.70;1.60;;;;;;;;;;5008995;28;20178;-74
2022/06/01 08:10:06;;;;;;;2.00;1.50;;;;;;;;;;5031881;28;20177;-73
2022/06/01 08:15:16;;;;;;;1.63;1.53;;;;;;;;;;5025063;28;20225;-73
2022/06/01 08:17:44;;;;;;;1.50;1.40;;;;;;;;;;5025373;28;20265;-74
2022/06/01 08:20:11;;;;;;;2.00;1.80;;;;;;;;;;5027379;28;20284;-74
2022/06/01 08:22:36;;;;;;;2.27;1.63;;;;;;;;;;5015315;28;20173;-73
2022/06/01 08:25:02;;;;;;;3.73;1.80;;;;;;;;;;5030850;28;20275;-74
2022/06/01 08:27:27;;;;;;;1.70;1.60;;;;;;;;;;5013831;28;20177;-73
2022/06/01 08:29:53;;;;;;;2.00;1.60;;;;;;;;;;5029175;28;20181;-73
2022/06/01 08:32:18;;;;;;;1.77;1.67;;;;;;;;;;5024483;28;20190;-73
2022/06/01 08:34:43;;;;;;;1.57;1.47;;;;;;;;;;5033413;28;20186;-74
2022/06/01 08:37:08;;;;;;;1.57;1.47;;;;;;;;;;5033385;28;20182;-74
2022/06/01 08:39:33;;;;;;;1.70;1.60;;;;;;;;;;5030304;28;20217;-73
2022/06/01 08:42:00;;;;;;;3.10;1.70;;;;;;;;;;5031983;28;20176;-74
2022/06/01 08:44:29;;;;;;;1.80;1.47;;;;;;;;;;5014564;28;20232;-73
2022/06/01 08:46:58;;;;;;;1.80;1.57;;;;;;;;;;5010454;28;20182;-74
2022/06/01 08:49:26;;;;;;;1.70;1.60;;;;;;;;;;5007225;28;20218;-73
2022/06/01 08:51:52;;;;;;;1.67;1.40;;;;;;;;;;5032557;28;20265;-74
2022/06/01 08:54:17;;;;;;;3.07;2.10;;;;;;;;;;5032749;28;20258;-74
2022/06/01 08:56:44;;;;;;;3.67;1.90;;;;;;;;;;5011886;28;20168;-74
2022/06/01 08:59:18;;;;;;;2.83;1.73;;;;;;;;;;5014144;28;20179;-73
2022/06/01 09:01:52;;;;;;;1.83;1.73;;;;;;;;;;5008331;28;20200;-73
2022/06/01 09:04:25;;;;;;;1.57;1.47;;;;;;;;;;5030296;28;20288;-73
2022/06/01 09:07:15;;;;;;;1.67;1.50;;;;;;;;;;5008731;28;20172;-73
2022/06/01 09:10:01;;;;;;;1.90;1.70;;;;;;;;;;5032998;28;20189;-73
2022/06/01 09:12:26;;;;;;;1.70;1.60;;;;;;;;;;5011437;28;20237;-73
2022/06/01 09:14:53;;;;;;;1.70;1.60;;;;;;;;;;5030202;28;20207;-74
2022/06/01 09:17:18;;;;;;;1.80;1.70;;;;;;;;;;5011254;28;20181;-73
2022/06/01 09:22:37;;;;;;;2.33;1.73;;;;;;;;;;5023052;28;20263;-73
2022/06/01 09:25:16;;;;;;;2.37;1.70;;;;;;;;;;5028799;28;20170;-73
2022/06/01 09:27:47;;;;;;;1.50;1.40;;;;;;;;;;5029338;28;20174;-74
2022/06/01 09:30:17;;;;;;;1.93;1.83;;;;;;;;;;5007624;28;20287;-74
2022/06/01 09:32:57;;;;;;;1.70;1.60;;;;;;;;;;5029999;28;20191;-74
2022/06/01 09:35:26;;;;;;;2.97;1.47;;;;;;;;;;5012077;28;20176;-73
2022/06/01 09:37:52;;;;;;;1.90;1.50;;;;;;;;;;5015527;28;20215;-73
2022/06/01 09:40:25;;;;;;;1.90;1.80;;;;;;;;;;5013237;28;20219;-74
2022/06/01 09:42:52;;;;;;;2.03;1.70;;;;;;;;;;5011093;28;20180;-73
2022/06/01 09:45:25;;;;;;;2.30;1.57;;;;;;;;;;5015658;28;20173;-73
2022/06/01 09:47:51;;;;;;;1.70;1.60;;;;;;;;;;5014377;28;20196;-73
2022/06/01 09:50:22;;;;;;;1.90;1.80;;;;;;;;;;5012207;28;20183;-73
2022/06/01 09:52:48;;;;;;;2.80;1.80;;;;;;;;;;5010450;28;20246;-73
2022/06/01 09:55:19;;;;;;;2.27;1.57;;;;;;;;;;5009046;28;20188;-73
2022/06/01 09:57:55;;;;;;;2.73;1.73;;;;;;;;;;5002371;28;20202;-73
2022/06/01 10:06:14;;;;;;;2.67;1.80;;;;;;;;;;5008898;28;20196;-73
2022/06/01 10:08:42;;;;;;;2.07;1.87;;;;;;;;;;4992544;28;20177;-73
2022/06/01 10:11:28;;;;;;;1.83;1.73;;;;;;;;;;5009358;28;20183;-73
2022/06/01 10:13:54;;;;;;;2.20;2.00;;;;;;;;;;5003333;28;20238;-73
2022/06/01 10:16:26;;;;;;;1.93;1.57;;;;;;;;;;5005868;28;20193;-73
2022/06/01 10:18:53;;;;;;;2.03;1.50;;;;;;;;;;5001870;28;20182;-73
2022/06/01 10:21:20;;;;;;;1.97;1.87;;;;;;;;;;5007364;28;20207;-73
2022/06/01 10:23:53;;;;;;;2.47;2.10;;;;;;;;;;4991219;28;20182;-73
2022/06/01 10:26:37;;;;;;;2.97;1.80;;;;;;;;;;4982179;28;20175;-73
2022/06/01 10:29:05;;;;;;;2.20;1.57;;;;;;;;;;5002792;28;20196;-73
2022/06/01 10:31:39;;;;;;;1.70;1.60;;;;;;;;;;4993456;28;20602;-73
2022/06/01 10:34:24;;;;;;;1.83;1.73;;;;;;;;;;5007323;28;20175;-73
2022/06/01 10:36:50;;;;;;;1.50;1.40;;;;;;;;;;5004167;28;20195;-73
2022/06/01 10:39:34;;;;;;;2.07;1.87;;;;;;;;;;5020039;28;20183;-73
2022/06/01 10:42:15;;;;;;;2.43;2.03;;;;;;;;;;5004302;28;20314;-73
2022/06/01 10:44:42;;;;;;;3.90;2.23;;;;;;;;;;4992487;28;20187;-73
2022/06/01 10:47:12;;;;;;;1.83;1.73;;;;;;;;;;4994217;28;20255;-74
2022/06/01 10:49:40;;;;;;;2.33;1.70;;;;;;;;;;5001328;28;20204;-73
2022/06/01 10:52:08;;;;;;;2.80;1.93;;;;;;;;;;4989664;28;20182;-73
2022/06/01 10:54:43;;;;;;;2.50;1.80;;;;;;;;;;4993867;28;20176;-73
2022/06/01 10:57:10;;;;;;;2.20;1.50;;;;;;;;;;4993489;28;20184;-73
2022/06/01 10:59:35;;;;;;;2.63;1.80;;;;;;;;;;4992130;28;20206;-73
2022/06/01 11:02:27;;;;;;;2.33;1.80;;;;;;;;;;5009156;28;20320;-73
2022/06/01 11:05:19;;;;;;;1.97;1.87;;;;;;;;;;5022435;28;20288;-74
2022/06/01 11:07:57;;;;;;;1.70;1.60;;;;;;;;;;5026116;28;20191;-73
2022/06/01 11:10:26;;;;;;;2.57;1.93;;;;;;;;;;5026912;28;20189;-73
2022/06/01 11:12:57;;;;;;;3.57;2.07;;;;;;;;;;5004937;28;20254;-73
2022/06/01 11:15:32;;;;;;;2.43;1.80;;;;;;;;;;5015714;28;20188;-73
2022/06/01 11:18:02;;;;;;;2.63;1.87;;;;;;;;;;5029035;28;20185;-73
2022/06/01 11:20:49;;;;;;;2.17;1.97;;;;;;;;;;5018896;28;20276;-73
2022/06/01 11:23:35;;;;;;;2.23;2.00;;;;;;;;;;5028155;28;20184;-73
2022/06/01 11:26:03;;;;;;;4.17;2.30;;;;;;;;;;5016134;28;20223;-73
2022/06/01 11:28:46;;;;;;;2.00;1.90;;;;;;;;;;5009097;28;20184;-74
2022/06/01 11:31:19;;;;;;;2.73;2.30;;;;;;;;;;5030886;28;20517;-73
2022/06/01 11:33:44;;;;;;;2.93;2.73;;;;;;;;;;5025041;28;20187;-73
2022/06/01 11:36:32;;;;;;;2.80;2.50;;;;;;;;;;5031233;28;20172;-73
2022/06/01 11:39:13;;;;;;;2.00;1.80;;;;;;;;;;4999245;28;20246;-74
2022/06/01 11:41:40;;;;;;;2.03;1.83;;;;;;;;;;5028135;28;20205;-73
2022/06/01 11:44:09;;;;;;;2.00;1.90;;;;;;;;;;5015332;28;20173;-73
2022/06/01 11:46:51;;;;;;;2.80;1.83;;;;;;;;;;5015857;28;20281;-73
2022/06/01 11:49:31;;;;;;;2.93;2.03;;;;;;;;;;5016007;28;20184;-74
2022/06/01 11:52:11;;;;;;;2.20;2.00;;;;;;;;;;5033895;28;20201;-73
2022/06/01 11:54:36;;;;;;;2.70;1.93;;;;;;;;;;5010147;28;20172;-73
2022/06/01 11:57:16;;;;;;;2.83;2.17;;;;;;;;;;5022097;28;20187;-73
2022/06/01 11:59:52;;;;;;;2.33;2.10;;;;;;;;;;5011339;28;20208;-73
2022/06/01 12:02:40;;;;;;;6.23;2.37;;;;;;;;;;5026964;28;20203;-73
2022/06/01 12:05:08;;;;;;;2.67;2.47;;;;;;;;;;5012631;28;20185;-73
2022/06/01 12:07:39;;;;;;;3.33;2.33;;;;;;;;;;5015307;28;20237;-73
2022/06/01 12:10:07;;;;;;;4.43;2.20;;;;;;;;;;5011967;28;20201;-73
2022/06/01 12:12:33;;;;;;;4.20;2.27;;;;;;;;;;5024486;28;20289;-73
2022/06/01 12:15:01;;;;;;;2.03;1.93;;;;;;;;;;5014084;28;20176;-73
2022/06/01 12:17:28;;;;;;;2.47;2.27;;;;;;;;;;5012286;28;20189;-73
2022/06/01 12:20:13;;;;;;;2.27;2.07;;;;;;;;;;5033843;28;20206;-73
2022/06/01 12:28:36;;;;;;;2.53;2.30;;;;;;;;;;5030941;28;20282;-73
2022/06/01 12:31:30;;;;;;;2.10;2.00;;;;;;;;;;5024805;28;20179;-73
2022/06/01 12:34:15;;;;;;;2.43;2.23;;;;;;;;;;5014090;28;20222;-73
2022/06/01 12:37:06;;;;;;;2.60;2.30;;;;;;;;;;5006888;28;20265;-73
2022/06/01 12:39:38;;;;;;;3.60;2.17;;;;;;;;;;5024920;28;20184;-73
2022/06/01 12:42:23;;;;;;;2.60;2.10;;;;;;;;;;5007343;28;20197;-73
2022/06/01 12:44:50;;;;;;;2.53;2.30;;;;;;;;;;4978861;28;20191;-74
2022/06/01 12:47:27;;;;;;;2.50;2.13;;;;;;;;;;5009516;28;20193;-73
2022/06/01 12:49:52;;;;;;;2.80;2.43;;;;;;;;;;5010905;28;20201;-74
2022/06/01 12:52:20;;;;;;;2.43;2.23;;;;;;;;;;5009913;28;20447;-74
2022/06/01 12:55:05;;;;;;;2.70;2.50;;;;;;;;;;5018494;28;20189;-73
2022/06/01 12:57:32;;;;;;;2.50;2.30;;;;;;;;;;5026017;28;20191;-73
2022/06/01 12:59:57;;;;;;;2.60;2.40;;;;;;;;;;5021102;28;20240;-74
2022/06/01 13:02:22;;;;;;;2.43;2.23;;;;;;;;;;5008691;28;20278;-73
2022/06/01 13:04:55;;;;;;;2.10;1.97;;;;;;;;;;5002894;28;20324;-73
2022/06/01 13:07:22;;;;;;;2.13;2.03;;;;;;;;;;5002308;28;20225;-73
2022/06/01 13:09:56;;;;;;;3.73;2.13;;;;;;;;;;5023456;28;20186;-74
2022/06/01 13:12:22;;;;;;;2.17;1.97;;;;;;;;;;5010727;28;20222;-74
2022/06/01 13:14:47;;;;;;;1.98;1.85;;;;;;;;;;5008120;28;20170;-74
2022/06/01 13:17:16;;;;;;;2.57;2.23;;;;;;;;;;5005859;28;20208;-73
2022/06/01 13:19:41;;;;;;;2.20;2.00;;;;;;;;;;5007126;28;20289;-73
2022/06/01 13:22:19;;;;;;;2.40;2.20;;;;;;;;;;5019638;28;20273;-74
2022/06/01 13:24:54;;;;;;;2.40;2.20;;;;;;;;;;5006621;28;20213;-73
2022/06/01 13:27:20;;;;;;;7.05;6.45;;;;;;;;;;5005825;28;20174;-74
2022/06/01 13:29:49;;;;;;;4.00;2.30;;;;;;;;;;5021468;28;20170;-74
2022/06/01 13:32:15;;;;;;;2.50;2.30;;;;;;;;;;5009888;28;20187;-73
2022/06/01 13:34:40;;;;;;;5.57;3.37;;;;;;;;;;5027174;28;20179;-73
2022/06/01 13:37:23;;;;;;;3.83;2.50;;;;;;;;;;5001793;28;20191;-74
2022/06/01 13:39:55;;;;;;;2.90;2.65;;;;;;;;;;5011806;28;20210;-74
2022/06/01 13:42:26;;;;;;;5.73;3.30;;;;;;;;;;5019515;28;20236;-73
2022/06/01 13:44:56;;;;;;;2.50;2.30;;;;;;;;;;5028474;28;20174;-74
2022/06/01 13:47:32;;;;;;;3.70;2.90;;;;;;;;;;5023211;28;20622;-74
2022/06/01 13:50:12;;;;;;;22.55;20.20;;;;;;;;;;5012318;28;20177;-74
2022/06/01 13:52:38;;;;;;;9.93;5.07;;;;;;;;;;5012589;28;20241;-74
2022/06/01 13:55:07;;;;;;;3.40;3.15;;;;;;;;;;5029067;28;20181;-73
2022/06/01 13:57:43;;;;;;;2.20;2.00;;;;;;;;;;5023954;28;20178;-74
2022/06/01 14:00:16;;;;;;;2.00;1.90;;;;;;;;;;5010951;28;20203;-73
2022/06/01 14:02:50;;;;;;;2.72;2.35;;;;;;;;;;5011534;28;20225;-74
2022/06/01 14:05:17;;;;;;;2.80;2.38;;;;;;;;;;5006808;28;20179;-73
2022/06/01 14:07:46;;;;;;;2.72;2.30;;;;;;;;;;5005101;28;20166;-73
2022/06/01 14:12:41;;;;;;;2.20;2.10;;;;;;;;;;4988556;28;20238;-75
2022/06/01 14:15:06;;;;;;;3.20;2.53;;;;;;;;;;4965370;28;20180;-75
2022/06/01 14:17:31;;;;;;;2.08;1.75;;;;;;;;;;4980783;28;20286;-76
2022/06/01 14:19:56;;;;;;;2.70;2.40;;;;;;;;;;4993341;28;20226;-71
2022/06/01 14:22:22;;;;;;;5.05;3.60;;;;;;;;;;4975470;28;20280;-72
2022/06/01 14:30:16;;;;;;;2.50;2.30;;;;;;;;;;4976528;28;20184;-71
2022/06/01 14:32:44;;;;;;;2.20;2.10;;;;;;;;;;4977933;28;20176;-77
2022/06/01 14:35:15;;;;;;;4.00;2.08;;;;;;;;;;4968788;28;20180;-71
2022/06/01 14:37:41;;;;;;;2.33;1.92;;;;;;;;;;4965263;28;20177;-72
2022/06/01 14:40:07;;;;;;;4.30;2.15;;;;;;;;;;4962499;28;20201;-72
2022/06/01 14:42:32;;;;;;;2.08;1.85;;;;;;;;;;4976661;28;20177;-72
2022/06/01 14:44:57;;;;;;;1.73;1.60;;;;;;;;;;4969644;28;20223;-72
2022/06/01 14:47:23;;;;;;;3.53;1.95;;;;;;;;;;4968265;28;20188;-72
2022/06/01 14:49:48;;;;;;;2.20;1.92;;;;;;;;;;4999917;28;20188;-71
2022/06/01 14:52:13;;;;;;;3.78;2.35;;;;;;;;;;4968791;28;20188;-71
2022/06/01 14:54:39;;;;;;;2.08;1.58;;;;;;;;;;4986683;28;20193;-72
2022/06/01 14:57:05;;;;;;;1.92;1.70;;;;;;;;;;4977591;28;20184;-71
2022/06/01 14:59:31;;;;;;;1.70;1.60;;;;;;;;;;4970194;28;20259;-72
2022/06/01 15:01:58;;;;;;;3.80;1.95;;;;;;;;;;4984950;28;20203;-72
2022/06/01 15:04:28;;;;;;;4.18;2.00;;;;;;;;;;4981985;28;20184;-74
2022/06/01 15:06:54;;;;;;;4.15;2.15;;;;;;;;;;4995310;28;20195;-74
2022/06/01 15:09:19;;;;;;;2.97;2.03;;;;;;;;;;5015864;28;20209;-74
2022/06/01 15:11:44;;;;;;;2.88;1.80;;;;;;;;;;4993100;28;20219;-74
2022/06/01 15:14:10;;;;;;;6.40;1.67;;;;;;;;;;4984570;28;20180;-74
2022/06/01 15:16:37;;;;;;;3.00;2.03;;;;;;;;;;5004242;28;20214;-74
2022/06/01 15:19:03;;;;;;;2.08;1.88;;;;;;;;;;4989256;28;20186;-74
2022/06/01 15:21:28;;;;;;;2.80;1.85;;;;;;;;;;4990993;28;20211;-73
2022/06/01 15:23:56;;;;;;;1.85;1.75;;;;;;;;;;4997881;28;20175;-74
2022/06/01 15:26:23;;;;;;;4.93;1.70;;;;;;;;;;4996943;28;20180;-74
2022/06/01 15:28:48;;;;;;;1.88;1.77;;;;;;;;;;4989305;28;20183;-74
2022/06/01 15:39:28;;;;;;;3.17;1.92;;;;;;;;;;4997601;28;20202;-74